createdAt,value
2023-02-08T00:00:47.005Z,100797.19
2023-02-08T00:03:13.442Z,100785.09
2023-02-08T00:05:40.444Z,100774.75
2023-02-08T00:08:07.638Z,100794.56
2023-02-08T00:10:34.882Z,100804.16
2023-02-08T00:13:01.812Z,100807.75
2023-02-08T00:15:28.301Z,100813.22
2023-02-08T00:17:54.973Z,100809.19
2023-02-08T00:20:21.657Z,100812.91
2023-02-08T00:22:48.401Z,100827.00
2023-02-08T00:25:14.835Z,100831.50
2023-02-08T00:27:41.196Z,100829.56
2023-02-08T00:30:08.776Z,100834.97
2023-02-08T00:32:35.614Z,100834.97
2023-02-08T00:35:04.517Z,100852.59
2023-02-08T00:37:30.936Z,100859.09
2023-02-08T00:39:57.253Z,100875.78
2023-02-08T00:42:23.840Z,100873.31
2023-02-08T00:44:50.341Z,100877.94
2023-02-08T00:47:16.767Z,100873.78
2023-02-08T00:49:43.200Z,100872.88
2023-02-08T00:52:09.655Z,100863.28
2023-02-08T00:54:36.410Z,100855.53
2023-02-08T00:57:02.846Z,100827.34
2023-02-08T00:59:29.342Z,100771.06
2023-02-08T01:01:55.966Z,100749.44
2023-02-08T01:04:22.487Z,100743.22
2023-02-08T01:06:48.911Z,100737.44
2023-02-08T01:09:15.564Z,100734.63
2023-02-08T01:11:42.294Z,100745.16
2023-02-08T01:14:09.007Z,100744.28
2023-02-08T01:16:36.462Z,100735.75
2023-02-08T01:19:04.613Z,100742.69
2023-02-08T01:21:34.223Z,100736.72
2023-02-08T01:24:02.324Z,100730.38
2023-02-08T01:26:29.931Z,100733.59
2023-02-08T01:28:57.104Z,100734.00
2023-02-08T01:31:26.405Z,100731.84
2023-02-08T01:33:52.981Z,100727.00
2023-02-08T01:36:19.516Z,100716.91
2023-02-08T01:38:46.598Z,100713.81
2023-02-08T01:41:22.068Z,100715.34
2023-02-08T01:44:00.739Z,100714.94
2023-02-08T01:46:27.553Z,100722.13
2023-02-08T01:48:57.683Z,100729.63
2023-02-08T01:51:31.475Z,100753.34
2023-02-08T01:54:00.388Z,100777.97
2023-02-08T01:56:31.080Z,100805.25
2023-02-08T01:59:00.752Z,100825.59
2023-02-08T02:01:31.004Z,100840.66
2023-02-08T02:04:02.015Z,100847.69
2023-02-08T02:06:33.435Z,100866.91
2023-02-08T02:09:26.671Z,100870.63
2023-02-08T02:11:54.662Z,100889.13
2023-02-08T02:14:22.389Z,100904.94
2023-02-08T02:16:48.965Z,100915.41
2023-02-08T02:19:36.144Z,100928.44
2023-02-08T02:22:10.726Z,100951.13
2023-02-08T02:35:13.798Z,100991.50
2023-02-08T02:38:25.204Z,100990.25
2023-02-08T02:41:29.610Z,100985.41
2023-02-08T02:43:57.850Z,100996.09
2023-02-08T02:46:25.962Z,100998.84
2023-02-08T02:49:04.376Z,101001.53
2023-02-08T02:51:48.791Z,101009.38
2023-02-08T02:54:20.808Z,101015.56
2023-02-08T02:56:55.503Z,101024.06
2023-02-08T02:59:22.733Z,101033.75
2023-02-08T03:01:49.636Z,101025.84
2023-02-08T03:04:19.198Z,101025.94
2023-02-08T03:06:51.986Z,101026.75
2023-02-08T03:09:35.494Z,101031.22
2023-02-08T03:12:20.224Z,101017.00
2023-02-08T03:14:57.750Z,100998.84
2023-02-08T03:17:36.807Z,100981.63
2023-02-08T03:20:09.724Z,100958.69
2023-02-08T03:22:57.288Z,100896.38
2023-02-08T03:25:35.374Z,100859.44
2023-02-08T03:28:08.549Z,100822.03
2023-02-08T03:30:47.384Z,100816.72
2023-02-08T03:33:26.854Z,100826.19
2023-02-08T03:35:57.011Z,100842.97
2023-02-08T03:38:36.246Z,100849.31
2023-02-08T03:41:06.425Z,100868.66
2023-02-08T03:43:38.561Z,100886.19
2023-02-08T03:46:17.711Z,100889.25
2023-02-08T03:48:49.405Z,100902.25
2023-02-08T03:51:16.828Z,100907.50
2023-02-08T03:53:46.336Z,100925.78
2023-02-08T03:56:28.802Z,100932.78
2023-02-08T03:59:20.700Z,100936.50
2023-02-08T04:02:10.330Z,100943.47
2023-02-08T04:04:41.983Z,100942.56
2023-02-08T04:07:09.154Z,100939.31
2023-02-08T04:09:38.459Z,100943.56
2023-02-08T04:12:05.797Z,100944.50
2023-02-08T04:14:32.307Z,100946.66
2023-02-08T04:16:58.921Z,100947.78
2023-02-08T04:19:25.398Z,100954.09
2023-02-08T04:21:51.830Z,100962.09
2023-02-08T04:24:18.239Z,100974.00
2023-02-08T04:26:44.650Z,100986.03
2023-02-08T04:29:11.199Z,100984.50
2023-02-08T04:31:37.807Z,100980.16
2023-02-08T04:34:04.434Z,100972.63
2023-02-08T04:36:31.052Z,100958.09
2023-02-08T04:38:57.543Z,100965.44
2023-02-08T04:41:25.371Z,100970.81
2023-02-08T04:43:51.860Z,100973.56
2023-02-08T04:46:18.700Z,100971.13
2023-02-08T04:48:45.588Z,100986.28
2023-02-08T04:51:12.084Z,100977.69
2023-02-08T04:53:38.812Z,100975.78
2023-02-08T04:56:05.524Z,100965.59
2023-02-08T04:58:32.024Z,100959.56
2023-02-08T05:00:58.450Z,100954.09
2023-02-08T05:03:25.056Z,100948.31
2023-02-08T05:05:59.182Z,100938.97
2023-02-08T05:08:26.202Z,100912.47
2023-02-08T05:10:52.690Z,100894.06
2023-02-08T05:13:19.227Z,100890.88
2023-02-08T05:15:45.938Z,100882.31
2023-02-08T05:18:12.473Z,100895.91
2023-02-08T05:20:39.357Z,100890.81
2023-02-08T05:23:05.988Z,100895.69
2023-02-08T05:25:32.576Z,100895.94
2023-02-08T05:28:00.351Z,100899.50
2023-02-08T05:30:27.093Z,100911.59
2023-02-08T05:32:53.606Z,100916.22
2023-02-08T05:35:20.131Z,100917.91
2023-02-08T05:37:46.618Z,100922.03
2023-02-08T05:40:13.152Z,100919.00
2023-02-08T05:42:39.772Z,100918.41
2023-02-08T05:45:06.519Z,100926.47
2023-02-08T05:47:33.053Z,100930.94
2023-02-08T05:49:59.796Z,100951.00
2023-02-08T05:52:26.308Z,100967.25
2023-02-08T05:54:52.969Z,100975.19
2023-02-08T05:57:19.438Z,100973.50
2023-02-08T05:59:45.833Z,100965.78
2023-02-08T06:02:12.272Z,100972.41
2023-02-08T06:04:39.211Z,100964.84
2023-02-08T06:07:05.930Z,100966.63
2023-02-08T06:09:32.351Z,100957.28
2023-02-08T06:11:59.249Z,100981.78
2023-02-08T06:14:25.980Z,100978.25
2023-02-08T06:16:52.821Z,100975.91
2023-02-08T06:19:19.471Z,100964.94
2023-02-08T06:21:45.981Z,100974.50
2023-02-08T06:24:12.541Z,100971.91
2023-02-08T06:26:41.322Z,100979.91
2023-02-08T06:29:08.022Z,100973.94
2023-02-08T06:31:35.638Z,100976.50
2023-02-08T06:34:02.558Z,100985.03
2023-02-08T06:36:29.174Z,100979.41
2023-02-08T06:38:55.598Z,100970.78
2023-02-08T06:41:23.613Z,100968.31
2023-02-08T06:43:50.017Z,100973.44
2023-02-08T06:46:16.715Z,100973.59
2023-02-08T06:48:43.207Z,100956.22
2023-02-08T06:51:10.826Z,100956.31
2023-02-08T06:53:37.259Z,100948.66
2023-02-08T06:56:03.947Z,100939.22
2023-02-08T06:58:30.457Z,100941.03
2023-02-08T07:00:56.976Z,100943.59
2023-02-08T07:03:23.796Z,100952.72
2023-02-08T07:06:04.184Z,100936.31
2023-02-08T07:08:32.625Z,100936.31
2023-02-08T07:11:01.203Z,100942.81
2023-02-08T07:13:29.185Z,100934.25
2023-02-08T07:15:55.759Z,100933.00
2023-02-08T07:18:22.523Z,100930.75
2023-02-08T07:20:49.106Z,100908.00
2023-02-08T07:23:15.823Z,100898.72
2023-02-08T07:25:42.660Z,100889.50
2023-02-08T07:28:10.170Z,100882.66
2023-02-08T07:30:37.314Z,100870.63
2023-02-08T07:33:03.905Z,100850.09
2023-02-08T07:35:30.469Z,100821.13
2023-02-08T07:37:56.940Z,100817.16
2023-02-08T07:40:23.451Z,100798.88
2023-02-08T07:42:49.892Z,100793.88
2023-02-08T07:45:16.421Z,100781.09
2023-02-08T07:47:43.061Z,100764.81
2023-02-08T07:50:09.665Z,100763.06
2023-02-08T07:52:36.296Z,100768.72
2023-02-08T07:55:02.906Z,100763.47
2023-02-08T07:57:29.440Z,100754.09
2023-02-08T07:59:55.886Z,100737.84
2023-02-08T08:02:22.364Z,100722.00
2023-02-08T08:04:48.774Z,100711.63
2023-02-08T08:07:15.607Z,100704.94
2023-02-08T08:09:42.116Z,100709.66
2023-02-08T08:12:08.636Z,100708.84
2023-02-08T08:14:35.350Z,100699.53
2023-02-08T08:17:01.806Z,100700.63
2023-02-08T08:19:28.364Z,100686.19
2023-02-08T08:21:54.855Z,100681.25
2023-02-08T08:24:21.374Z,100672.63
2023-02-08T08:26:48.024Z,100672.06
2023-02-08T08:29:24.496Z,100670.28
2023-02-08T08:31:51.138Z,100677.84
2023-02-08T08:34:17.641Z,100665.22
2023-02-08T08:36:44.084Z,100665.53
2023-02-08T08:39:10.628Z,100673.47
2023-02-08T08:41:37.178Z,100673.16
2023-02-08T08:44:03.912Z,100668.94
2023-02-08T08:46:30.672Z,100675.94
2023-02-08T08:48:58.260Z,100671.91
2023-02-08T08:51:24.793Z,100676.31
2023-02-08T08:53:51.243Z,100676.81
2023-02-08T08:56:17.754Z,100677.00
2023-02-08T08:58:44.278Z,100667.94
2023-02-08T09:01:10.843Z,100686.44
2023-02-08T09:03:37.595Z,100676.94
2023-02-08T09:06:04.188Z,100681.25
2023-02-08T09:08:30.639Z,100672.38
2023-02-08T09:10:57.195Z,100670.31
2023-02-08T09:13:23.685Z,100661.25
2023-02-08T09:15:50.248Z,100659.03
2023-02-08T09:18:17.334Z,100655.94
2023-02-08T09:20:44.112Z,100663.50
2023-02-08T09:23:11.878Z,100657.59
2023-02-08T09:25:38.926Z,100661.06
2023-02-08T09:28:05.608Z,100659.19
2023-02-08T09:30:32.650Z,100651.97
2023-02-08T09:32:59.236Z,100652.91
2023-02-08T09:35:25.768Z,100654.78
2023-02-08T09:37:56.397Z,100662.66
2023-02-08T09:40:30.852Z,100654.78
2023-02-08T09:43:12.937Z,100653.16
2023-02-08T09:46:00.255Z,100658.50
2023-02-08T09:48:46.234Z,100653.75
2023-02-08T09:51:39.802Z,100653.69
2023-02-08T09:54:22.596Z,100644.28
2023-02-08T09:56:50.012Z,100643.41
2023-02-08T09:59:23.444Z,100648.31
2023-02-08T10:01:52.597Z,100642.75
2023-02-08T10:04:48.206Z,100647.72
2023-02-08T10:07:15.010Z,100626.22
2023-02-08T10:09:41.469Z,100636.13
2023-02-08T10:12:47.463Z,100631.63
2023-02-08T10:15:32.116Z,100638.31
2023-02-08T10:18:13.635Z,100641.78
2023-02-08T10:20:59.022Z,100642.53
2023-02-08T10:23:42.487Z,100637.00
2023-02-08T10:26:23.886Z,100640.13
2023-02-08T10:29:02.636Z,100641.94
2023-02-08T10:31:50.750Z,100637.63
2023-02-08T10:34:25.580Z,100637.00
2023-02-08T10:36:52.866Z,100619.91
2023-02-08T10:39:30.151Z,100623.25
2023-02-08T10:41:57.158Z,100629.41
2023-02-08T10:44:35.638Z,100622.31
2023-02-08T10:47:27.540Z,100630.34
2023-02-08T10:50:01.153Z,100612.22
2023-02-08T10:52:27.722Z,100617.84
2023-02-08T10:54:59.357Z,100622.72
2023-02-08T10:57:31.427Z,100617.34
2023-02-08T11:00:18.069Z,100611.13
2023-02-08T11:02:44.849Z,100612.69
2023-02-08T11:05:18.802Z,100611.13
2023-02-08T11:07:45.709Z,100597.72
2023-02-08T11:10:14.847Z,100595.56
2023-02-08T11:12:43.157Z,100582.06
2023-02-08T11:15:26.061Z,100579.50
2023-02-08T11:17:59.679Z,100588.84
2023-02-08T11:20:39.046Z,100583.44
2023-02-08T11:23:21.290Z,100576.88
2023-02-08T11:25:47.739Z,100577.94
2023-02-08T11:28:31.445Z,100572.69
2023-02-08T11:31:02.453Z,100567.16
2023-02-08T11:33:34.251Z,100571.31
2023-02-08T11:36:05.094Z,100560.88
2023-02-08T11:41:21.921Z,100559.38
2023-02-08T11:44:00.447Z,100561.19
2023-02-08T11:46:29.338Z,100557.81
2023-02-08T11:48:57.420Z,100551.00
2023-02-08T11:51:33.698Z,100539.00
2023-02-08T11:54:08.291Z,100549.88
2023-02-08T11:56:38.968Z,100538.84
2023-02-08T11:59:18.856Z,100544.38
2023-02-08T12:01:45.694Z,100546.28
2023-02-08T12:04:15.634Z,100531.53
2023-02-08T12:07:01.320Z,100538.81
2023-02-08T12:09:37.988Z,100535.22
2023-02-08T12:12:39.853Z,100532.38
2023-02-08T12:15:22.191Z,100528.84
2023-02-08T12:18:01.243Z,100535.16
2023-02-08T12:20:38.233Z,100522.91
2023-02-08T12:23:26.455Z,100513.94
2023-02-08T12:26:18.621Z,100512.09
2023-02-08T12:29:06.392Z,100512.38
2023-02-08T12:31:45.153Z,100497.41
2023-02-08T12:34:39.232Z,100498.91
2023-02-08T12:37:24.378Z,100490.94
2023-02-08T12:40:09.635Z,100492.34
2023-02-08T12:43:08.547Z,100487.50
2023-02-08T12:45:53.990Z,100485.16
2023-02-08T12:48:33.740Z,100483.63
2023-02-08T12:51:24.352Z,100465.81
2023-02-08T12:53:56.840Z,100469.00
2023-02-08T12:56:35.388Z,100457.75
2023-02-08T12:59:13.111Z,100450.75
2023-02-08T13:01:46.918Z,100450.69
2023-02-08T13:04:18.128Z,100450.06
2023-02-08T13:06:53.032Z,100444.25
2023-02-08T13:09:25.227Z,100438.94
2023-02-08T13:11:57.936Z,100436.75
2023-02-08T13:14:29.977Z,100445.34
2023-02-08T13:17:03.191Z,100434.47
2023-02-08T13:19:59.698Z,100442.78
2023-02-08T13:22:27.172Z,100425.91
2023-02-08T13:25:06.262Z,100420.53
2023-02-08T13:27:33.994Z,100435.28
2023-02-08T13:30:01.528Z,100424.41
2023-02-08T13:32:48.397Z,100423.38
2023-02-08T13:35:27.936Z,100424.50
2023-02-08T13:38:20.788Z,100417.09
2023-02-08T13:40:47.526Z,100411.13
2023-02-08T13:43:34.726Z,100409.53
2023-02-08T13:46:03.095Z,100405.72
2023-02-08T13:48:43.052Z,100409.13
2023-02-08T13:51:32.720Z,100413.25
2023-02-08T13:54:01.891Z,100423.56
2023-02-08T13:56:38.049Z,100421.53
2023-02-08T13:59:24.255Z,100421.22
2023-02-08T14:02:12.504Z,100411.97
2023-02-08T14:04:42.739Z,100416.56
2023-02-08T14:07:12.064Z,100419.72
2023-02-08T14:10:02.765Z,100412.66
2023-02-08T14:12:41.206Z,100416.19
2023-02-08T14:15:32.748Z,100415.81
2023-02-08T14:18:01.287Z,100413.00
2023-02-08T14:20:40.309Z,100422.88
2023-02-08T14:23:20.993Z,100421.31
2023-02-08T14:25:50.474Z,100421.25
2023-02-08T14:28:34.863Z,100420.84
2023-02-08T14:31:05.628Z,100423.03
2023-02-08T14:33:36.758Z,100419.13
2023-02-08T14:36:07.031Z,100415.50
2023-02-08T14:39:05.347Z,100412.84
2023-02-08T14:41:47.452Z,100413.63
2023-02-08T14:44:40.092Z,100406.22
2023-02-08T14:47:24.688Z,100417.16
2023-02-08T14:50:17.255Z,100419.88
2023-02-08T14:53:08.602Z,100412.56
2023-02-08T14:55:43.083Z,100419.44
2023-02-08T14:58:16.400Z,100413.38
2023-02-08T15:00:43.560Z,100416.31
2023-02-08T15:03:18.042Z,100423.28
2023-02-08T15:06:04.837Z,100414.03
2023-02-08T15:08:31.234Z,100419.94
2023-02-08T15:10:57.932Z,100416.66
2023-02-08T15:13:24.821Z,100421.72
2023-02-08T15:15:54.926Z,100422.06
2023-02-08T15:18:39.300Z,100418.47
2023-02-08T15:21:17.667Z,100419.63
2023-02-08T15:24:17.680Z,100416.78
2023-02-08T15:26:53.006Z,100409.72
2023-02-08T15:29:23.235Z,100418.44
2023-02-08T15:31:53.735Z,100408.53
2023-02-08T15:34:23.649Z,100407.47
2023-02-08T15:36:53.557Z,100414.28
2023-02-08T15:39:31.999Z,100408.16
2023-02-08T15:41:59.208Z,100397.97
2023-02-08T15:44:31.873Z,100406.16
2023-02-08T15:47:09.703Z,100402.97
2023-02-08T15:49:39.895Z,100398.72
2023-02-08T15:52:07.990Z,100405.03
2023-02-08T15:54:34.871Z,100407.03
2023-02-08T15:57:22.777Z,100396.78
2023-02-08T15:59:49.440Z,100393.63
2023-02-08T16:02:23.596Z,100396.53
2023-02-08T16:04:50.619Z,100396.94
2023-02-08T16:07:31.396Z,100397.25
2023-02-08T16:09:58.380Z,100399.63
2023-02-08T16:12:27.716Z,100395.59
2023-02-08T16:14:55.223Z,100396.50
2023-02-08T16:17:31.482Z,100398.59
2023-02-08T16:19:58.042Z,100400.97
2023-02-08T16:22:32.760Z,100400.53
2023-02-08T16:25:25.701Z,100395.47
2023-02-08T16:27:52.839Z,100388.78
2023-02-08T16:30:22.734Z,100399.97
2023-02-08T16:32:49.505Z,100400.53
2023-02-08T16:35:24.413Z,100397.25
2023-02-08T16:38:02.193Z,100395.16
2023-02-08T16:40:47.201Z,100399.31
2023-02-08T16:43:18.251Z,100406.63
2023-02-08T16:45:45.502Z,100407.56
2023-02-08T16:48:57.159Z,100405.31
2023-02-08T16:51:33.064Z,100401.25
2023-02-08T16:54:05.117Z,100394.56
2023-02-08T16:56:34.235Z,100397.09
2023-02-08T16:59:00.735Z,100408.13
2023-02-08T17:01:27.316Z,100411.03
2023-02-08T17:03:54.207Z,100402.03
2023-02-08T17:06:29.205Z,100408.38
2023-02-08T17:08:57.054Z,100414.56
2023-02-08T17:11:23.890Z,100415.00
2023-02-08T17:13:50.734Z,100414.59
2023-02-08T17:16:20.938Z,100418.34
2023-02-08T17:18:48.257Z,100427.41
2023-02-08T17:21:15.331Z,100415.78
2023-02-08T17:23:42.531Z,100431.03
2023-02-08T17:26:18.026Z,100426.13
2023-02-08T17:28:44.761Z,100429.88
2023-02-08T17:31:12.855Z,100430.44
2023-02-08T17:33:41.064Z,100437.81
2023-02-08T17:36:09.862Z,100436.81
2023-02-08T17:38:37.165Z,100442.38
2023-02-08T17:41:03.928Z,100446.19
2023-02-08T17:43:30.413Z,100456.78
2023-02-08T17:45:57.240Z,100464.97
2023-02-08T17:48:24.407Z,100463.25
2023-02-08T17:50:51.186Z,100466.03
2023-02-08T17:53:18.689Z,100466.31
2023-02-08T17:55:46.012Z,100471.47
2023-02-08T17:58:12.982Z,100470.38
2023-02-08T18:00:39.705Z,100474.69
2023-02-08T18:03:06.288Z,100471.78
2023-02-08T18:05:33.088Z,100476.59
2023-02-08T18:07:59.725Z,100465.34
2023-02-08T18:10:26.471Z,100470.53
2023-02-08T18:12:52.951Z,100468.06
2023-02-08T18:15:21.818Z,100474.03
2023-02-08T18:17:49.256Z,100468.81
2023-02-08T18:20:16.280Z,100461.19
2023-02-08T18:22:44.004Z,100458.25
2023-02-08T18:25:12.779Z,100454.84
2023-02-08T18:27:39.650Z,100458.16
2023-02-08T18:30:06.615Z,100459.94
2023-02-08T18:32:33.095Z,100453.34
2023-02-08T18:35:00.691Z,100460.41
2023-02-08T18:37:29.201Z,100461.13
2023-02-08T18:39:55.798Z,100461.47
2023-02-08T18:42:22.745Z,100455.66
2023-02-08T18:44:49.534Z,100456.75
2023-02-08T18:47:16.875Z,100448.28
2023-02-08T18:49:43.408Z,100455.38
2023-02-08T18:52:14.026Z,100458.16
2023-02-08T18:54:40.628Z,100452.56
2023-02-08T18:57:07.597Z,100451.88
2023-02-08T18:59:34.468Z,100451.19
2023-02-08T19:02:01.318Z,100458.22
2023-02-08T19:04:30.220Z,100444.81
2023-02-08T19:06:56.926Z,100448.56
2023-02-08T19:09:23.285Z,100442.88
2023-02-08T19:11:51.359Z,100429.19
2023-02-08T19:14:18.004Z,100437.44
2023-02-08T19:16:48.013Z,100436.44
2023-02-08T19:19:14.618Z,100435.06
2023-02-08T19:21:41.198Z,100429.81
2023-02-08T19:24:08.056Z,100433.44
2023-02-08T19:26:37.194Z,100428.09
2023-02-08T19:29:05.070Z,100434.38
2023-02-08T19:31:34.454Z,100425.50
2023-02-08T19:34:03.117Z,100432.22
2023-02-08T19:36:36.385Z,100434.69
2023-02-08T19:39:04.662Z,100430.47
2023-02-08T19:41:37.250Z,100423.97
2023-02-08T19:44:07.796Z,100430.16
2023-02-08T19:46:37.969Z,100437.56
2023-02-08T19:49:05.111Z,100433.69
2023-02-08T19:51:32.969Z,100434.09
2023-02-08T19:54:01.221Z,100438.53
2023-02-08T19:56:29.556Z,100447.34
2023-02-08T19:58:56.414Z,100448.38
2023-02-08T20:01:23.625Z,100458.00
2023-02-08T20:03:52.429Z,100447.47
2023-02-08T20:06:22.042Z,100446.00
2023-02-08T20:08:49.409Z,100441.72
2023-02-08T20:11:54.790Z,100448.13
2023-02-08T20:14:22.831Z,100454.53
2023-02-08T20:16:49.779Z,100449.59
2023-02-08T20:19:16.769Z,100451.50
2023-02-08T20:21:45.040Z,100453.38
2023-02-08T20:24:11.866Z,100451.66
2023-02-08T20:26:40.618Z,100460.56
2023-02-08T20:29:08.294Z,100461.78
2023-02-08T20:31:37.316Z,100470.72
2023-02-08T20:34:07.029Z,100469.13
2023-02-08T20:36:37.228Z,100480.00
2023-02-08T20:39:04.775Z,100473.88
2023-02-08T20:41:31.412Z,100473.19
2023-02-08T20:43:58.175Z,100473.19
2023-02-08T20:46:34.053Z,100473.47
2023-02-08T20:49:02.965Z,100478.72
2023-02-08T20:51:30.327Z,100472.53
2023-02-08T20:53:58.240Z,100468.09
2023-02-08T20:56:33.984Z,100460.88
2023-02-08T20:59:06.656Z,100450.25
2023-02-08T21:01:34.643Z,100452.13
2023-02-08T21:04:02.290Z,100451.03
2023-02-08T21:06:31.486Z,100445.03
2023-02-08T21:09:00.866Z,100445.16
2023-02-08T21:11:29.969Z,100439.34
2023-02-08T21:13:57.624Z,100420.75
2023-02-08T21:16:25.740Z,100425.03
2023-02-08T21:18:54.131Z,100425.13
2023-02-08T21:21:20.777Z,100418.28
2023-02-08T21:23:48.093Z,100434.34
2023-02-08T21:26:18.355Z,100421.22
2023-02-08T21:28:45.665Z,100415.16
2023-02-08T21:31:17.515Z,100416.72
2023-02-08T21:33:45.334Z,100408.28
2023-02-08T21:36:15.047Z,100411.50
2023-02-08T21:38:42.597Z,100405.63
2023-02-08T21:41:15.490Z,100416.53
2023-02-08T21:43:42.206Z,100416.06
2023-02-08T21:46:09.965Z,100411.75
2023-02-08T21:48:36.816Z,100418.59
2023-02-08T21:51:03.519Z,100418.72
2023-02-08T21:53:30.088Z,100440.34
2023-02-08T21:55:56.572Z,100443.44
2023-02-08T21:58:23.377Z,100446.19
2023-02-08T22:00:49.965Z,100428.13
2023-02-08T22:03:16.734Z,100423.84
2023-02-08T22:05:43.410Z,100408.03
2023-02-08T22:08:09.872Z,100393.44
2023-02-08T22:10:36.308Z,100392.53
2023-02-08T22:13:02.867Z,100385.88
2023-02-08T22:15:30.977Z,100390.22
2023-02-08T22:17:59.697Z,100391.94
2023-02-08T22:20:26.497Z,100397.41
2023-02-08T22:22:55.226Z,100393.72
2023-02-08T22:25:24.088Z,100397.72
2023-02-08T22:27:50.849Z,100403.22
2023-02-08T22:30:19.037Z,100412.28
2023-02-08T22:32:47.709Z,100414.13
2023-02-08T22:35:14.733Z,100417.09
2023-02-08T22:37:43.038Z,100424.34
2023-02-08T22:40:10.428Z,100427.03
2023-02-08T22:42:39.065Z,100430.50
2023-02-08T22:45:05.924Z,100425.91
2023-02-08T22:47:33.341Z,100430.44
2023-02-08T22:49:59.803Z,100425.97
2023-02-08T22:52:29.057Z,100426.97
2023-02-08T22:54:55.643Z,100412.19
2023-02-08T22:57:22.148Z,100411.50
2023-02-08T22:59:48.669Z,100402.88
2023-02-08T23:02:15.181Z,100408.31
2023-02-08T23:04:41.556Z,100410.38
2023-02-08T23:07:08.081Z,100419.31
2023-02-08T23:09:35.071Z,100407.94
2023-02-08T23:12:01.547Z,100413.03
2023-02-08T23:14:28.087Z,100413.69
2023-02-08T23:16:54.701Z,100404.72
2023-02-08T23:19:21.133Z,100401.31
2023-02-08T23:21:47.658Z,100405.88
2023-02-08T23:24:14.123Z,100409.94
2023-02-08T23:26:40.582Z,100398.44
2023-02-08T23:29:08.168Z,100392.13
2023-02-08T23:31:34.895Z,100393.06
2023-02-08T23:34:01.518Z,100393.84
2023-02-08T23:36:28.102Z,100391.38
2023-02-08T23:38:54.674Z,100391.28
2023-02-08T23:41:23.824Z,100390.63
2023-02-08T23:43:51.675Z,100400.75
2023-02-08T23:46:21.545Z,100412.25
2023-02-08T23:48:48.069Z,100417.88
2023-02-08T23:51:16.147Z,100428.47
2023-02-08T23:53:42.990Z,100412.56
2023-02-08T23:56:19.790Z,100407.72
2023-02-08T23:58:51.385Z,100396.50
